sensor_id;sensor_type;location;lat;lon;timestamp;P1;durP1;ratioP1;P2;durP2;ratioP2
68178;SDS011;69812;42.632;23.440;2023-11-19T00:00:29;3.55;;;2.50;;
68178;SDS011;69812;42.632;23.440;2023-11-19T00:02:55;4.75;;;2.40;;
68178;SDS011;69812;42.632;23.440;2023-11-19T00:05:20;4.57;;;2.83;;
68178;SDS011;69812;42.632;23.440;2023-11-19T00:07:45;4.22;;;2.42;;
68178;SDS011;69812;42.632;23.440;2023-11-19T00:10:11;3.50;;;2.58;;
68178;SDS011;69812;42.632;23.440;2023-11-19T00:12:39;4.78;;;2.60;;
68178;SDS011;69812;42.632;23.440;2023-11-19T00:15:06;4.55;;;2.72;;
68178;SDS011;69812;42.632;23.440;2023-11-19T00:17:36;3.97;;;2.47;;
68178;SDS011;69812;42.632;23.440;2023-11-19T00:20:03;5.78;;;2.50;;
68178;SDS011;69812;42.632;23.440;2023-11-19T00:22:30;4.47;;;2.53;;
68178;SDS011;69812;42.632;23.440;2023-11-19T00:24:56;3.33;;;2.28;;
68178;SDS011;69812;42.632;23.440;2023-11-19T00:27:21;4.72;;;2.80;;
68178;SDS011;69812;42.632;23.440;2023-11-19T00:29:47;5.50;;;2.83;;
68178;SDS011;69812;42.632;23.440;2023-11-19T00:32:12;3.83;;;2.47;;
68178;SDS011;69812;42.632;23.440;2023-11-19T00:34:38;4.50;;;3.05;;
68178;SDS011;69812;42.632;23.440;2023-11-19T00:37:03;3.47;;;2.58;;
68178;SDS011;69812;42.632;23.440;2023-11-19T00:39:29;2.95;;;2.17;;
68178;SDS011;69812;42.632;23.440;2023-11-19T00:41:54;4.63;;;2.95;;
68178;SDS011;69812;42.632;23.440;2023-11-19T00:44:19;3.88;;;2.60;;
68178;SDS011;69812;42.632;23.440;2023-11-19T00:46:45;3.47;;;2.30;;
68178;SDS011;69812;42.632;23.440;2023-11-19T00:49:10;3.85;;;2.35;;
68178;SDS011;69812;42.632;23.440;2023-11-19T00:51:36;3.25;;;2.17;;
68178;SDS011;69812;42.632;23.440;2023-11-19T00:54:02;3.95;;;2.70;;
68178;SDS011;69812;42.632;23.440;2023-11-19T00:56:28;4.57;;;2.75;;
68178;SDS011;69812;42.632;23.440;2023-11-19T00:58:54;5.13;;;2.72;;
68178;SDS011;69812;42.632;23.440;2023-11-19T01:01:19;4.05;;;2.72;;
68178;SDS011;69812;42.632;23.440;2023-11-19T01:03:44;4.13;;;2.50;;
68178;SDS011;69812;42.632;23.440;2023-11-19T01:06:10;3.38;;;2.20;;
68178;SDS011;69812;42.632;23.440;2023-11-19T01:08:35;3.70;;;2.50;;
68178;SDS011;69812;42.632;23.440;2023-11-19T01:11:01;4.53;;;2.78;;
68178;SDS011;69812;42.632;23.440;2023-11-19T01:13:27;3.97;;;2.33;;
68178;SDS011;69812;42.632;23.440;2023-11-19T01:15:53;3.58;;;2.22;;
68178;SDS011;69812;42.632;23.440;2023-11-19T01:18:18;4.57;;;2.17;;
68178;SDS011;69812;42.632;23.440;2023-11-19T01:20:43;3.47;;;2.17;;
68178;SDS011;69812;42.632;23.440;2023-11-19T01:23:09;3.90;;;2.55;;
68178;SDS011;69812;42.632;23.440;2023-11-19T01:25:34;4.18;;;2.60;;
68178;SDS011;69812;42.632;23.440;2023-11-19T01:28:00;3.75;;;2.38;;
68178;SDS011;69812;42.632;23.440;2023-11-19T01:30:27;3.25;;;2.15;;
68178;SDS011;69812;42.632;23.440;2023-11-19T01:32:53;4.00;;;2.22;;
68178;SDS011;69812;42.632;23.440;2023-11-19T01:35:18;3.58;;;2.10;;
68178;SDS011;69812;42.632;23.440;2023-11-19T01:37:44;4.93;;;2.47;;
68178;SDS011;69812;42.632;23.440;2023-11-19T01:40:09;3.72;;;2.20;;
68178;SDS011;69812;42.632;23.440;2023-11-19T01:42:39;3.78;;;2.38;;
68178;SDS011;69812;42.632;23.440;2023-11-19T01:45:05;4.95;;;2.50;;
68178;SDS011;69812;42.632;23.440;2023-11-19T01:47:33;3.88;;;2.47;;
68178;SDS011;69812;42.632;23.440;2023-11-19T01:50:00;2.88;;;1.88;;
68178;SDS011;69812;42.632;23.440;2023-11-19T01:52:27;3.00;;;2.13;;
68178;SDS011;69812;42.632;23.440;2023-11-19T01:54:53;3.20;;;2.22;;
68178;SDS011;69812;42.632;23.440;2023-11-19T01:57:20;3.45;;;2.35;;
68178;SDS011;69812;42.632;23.440;2023-11-19T01:59:48;3.78;;;2.20;;
68178;SDS011;69812;42.632;23.440;2023-11-19T02:02:16;2.88;;;1.85;;
68178;SDS011;69812;42.632;23.440;2023-11-19T02:04:45;2.90;;;1.88;;
68178;SDS011;69812;42.632;23.440;2023-11-19T02:07:13;4.00;;;2.20;;
68178;SDS011;69812;42.632;23.440;2023-11-19T02:09:42;3.00;;;2.03;;
68178;SDS011;69812;42.632;23.440;2023-11-19T02:12:07;3.88;;;2.40;;
68178;SDS011;69812;42.632;23.440;2023-11-19T02:14:34;3.40;;;2.30;;
68178;SDS011;69812;42.632;23.440;2023-11-19T02:16:59;2.70;;;1.90;;
68178;SDS011;69812;42.632;23.440;2023-11-19T02:19:25;3.33;;;2.22;;
68178;SDS011;69812;42.632;23.440;2023-11-19T02:21:50;2.83;;;2.00;;
68178;SDS011;69812;42.632;23.440;2023-11-19T02:24:15;3.05;;;1.95;;
68178;SDS011;69812;42.632;23.440;2023-11-19T02:26:56;3.53;;;2.20;;
68178;SDS011;69812;42.632;23.440;2023-11-19T02:29:30;3.13;;;2.20;;
68178;SDS011;69812;42.632;23.440;2023-11-19T02:31:56;4.57;;;2.17;;
68178;SDS011;69812;42.632;23.440;2023-11-19T02:34:21;2.50;;;2.00;;
68178;SDS011;69812;42.632;23.440;2023-11-19T02:36:47;3.03;;;2.00;;
68178;SDS011;69812;42.632;23.440;2023-11-19T02:39:12;3.10;;;2.00;;
68178;SDS011;69812;42.632;23.440;2023-11-19T02:41:38;3.35;;;2.20;;
68178;SDS011;69812;42.632;23.440;2023-11-19T02:44:05;4.20;;;1.90;;
68178;SDS011;69812;42.632;23.440;2023-11-19T02:46:31;3.47;;;2.10;;
68178;SDS011;69812;42.632;23.440;2023-11-19T02:48:57;2.78;;;2.03;;
68178;SDS011;69812;42.632;23.440;2023-11-19T02:51:22;3.55;;;2.00;;
68178;SDS011;69812;42.632;23.440;2023-11-19T02:53:48;3.67;;;2.05;;
68178;SDS011;69812;42.632;23.440;2023-11-19T02:56:13;5.20;;;2.38;;
68178;SDS011;69812;42.632;23.440;2023-11-19T02:58:50;3.92;;;2.50;;
68178;SDS011;69812;42.632;23.440;2023-11-19T03:01:23;3.03;;;2.13;;
68178;SDS011;69812;42.632;23.440;2023-11-19T03:03:54;3.78;;;2.10;;
68178;SDS011;69812;42.632;23.440;2023-11-19T03:06:22;3.83;;;2.00;;
68178;SDS011;69812;42.632;23.440;2023-11-19T03:08:48;2.03;;;1.63;;
68178;SDS011;69812;42.632;23.440;2023-11-19T03:11:13;3.65;;;2.13;;
68178;SDS011;69812;42.632;23.440;2023-11-19T03:13:39;2.45;;;1.90;;
68178;SDS011;69812;42.632;23.440;2023-11-19T03:16:04;2.50;;;1.80;;
68178;SDS011;69812;42.632;23.440;2023-11-19T03:18:30;2.83;;;1.67;;
68178;SDS011;69812;42.632;23.440;2023-11-19T03:20:56;3.80;;;2.15;;
68178;SDS011;69812;42.632;23.440;2023-11-19T03:23:24;3.70;;;2.22;;
68178;SDS011;69812;42.632;23.440;2023-11-19T03:25:52;3.10;;;1.75;;
68178;SDS011;69812;42.632;23.440;2023-11-19T03:28:18;4.75;;;2.00;;
68178;SDS011;69812;42.632;23.440;2023-11-19T03:30:43;2.63;;;1.55;;
68178;SDS011;69812;42.632;23.440;2023-11-19T03:33:08;3.97;;;2.00;;
68178;SDS011;69812;42.632;23.440;2023-11-19T03:35:34;2.70;;;1.80;;
68178;SDS011;69812;42.632;23.440;2023-11-19T03:37:59;3.45;;;1.85;;
68178;SDS011;69812;42.632;23.440;2023-11-19T03:40:25;3.45;;;1.83;;
68178;SDS011;69812;42.632;23.440;2023-11-19T03:42:50;4.00;;;1.98;;
68178;SDS011;69812;42.632;23.440;2023-11-19T03:45:16;4.18;;;2.33;;
68178;SDS011;69812;42.632;23.440;2023-11-19T03:47:41;5.25;;;2.78;;
68178;SDS011;69812;42.632;23.440;2023-11-19T03:50:07;3.47;;;2.55;;
68178;SDS011;69812;42.632;23.440;2023-11-19T03:52:35;3.20;;;1.80;;
68178;SDS011;69812;42.632;23.440;2023-11-19T03:55:01;3.85;;;2.22;;
68178;SDS011;69812;42.632;23.440;2023-11-19T03:57:28;3.90;;;2.03;;
68178;SDS011;69812;42.632;23.440;2023-11-19T03:59:53;2.63;;;1.65;;
68178;SDS011;69812;42.632;23.440;2023-11-19T04:02:20;3.35;;;2.13;;
68178;SDS011;69812;42.632;23.440;2023-11-19T04:04:46;4.05;;;2.28;;
68178;SDS011;69812;42.632;23.440;2023-11-19T04:07:11;2.45;;;1.60;;
68178;SDS011;69812;42.632;23.440;2023-11-19T04:09:36;4.15;;;2.08;;
68178;SDS011;69812;42.632;23.440;2023-11-19T04:12:05;4.25;;;2.13;;
68178;SDS011;69812;42.632;23.440;2023-11-19T04:14:30;3.75;;;2.20;;
68178;SDS011;69812;42.632;23.440;2023-11-19T04:16:59;3.63;;;2.00;;
68178;SDS011;69812;42.632;23.440;2023-11-19T04:19:24;4.85;;;2.72;;
68178;SDS011;69812;42.632;23.440;2023-11-19T04:21:50;3.28;;;2.03;;
68178;SDS011;69812;42.632;23.440;2023-11-19T04:24:17;4.18;;;2.78;;
68178;SDS011;69812;42.632;23.440;2023-11-19T04:26:43;3.72;;;1.92;;
68178;SDS011;69812;42.632;23.440;2023-11-19T04:31:36;3.83;;;2.13;;
68178;SDS011;69812;42.632;23.440;2023-11-19T04:34:01;4.45;;;2.33;;
68178;SDS011;69812;42.632;23.440;2023-11-19T04:36:29;3.67;;;2.40;;
68178;SDS011;69812;42.632;23.440;2023-11-19T04:38:54;3.25;;;2.03;;
68178;SDS011;69812;42.632;23.440;2023-11-19T04:41:20;3.70;;;2.28;;
68178;SDS011;69812;42.632;23.440;2023-11-19T04:43:46;4.45;;;2.42;;
68178;SDS011;69812;42.632;23.440;2023-11-19T04:46:11;3.80;;;2.33;;
68178;SDS011;69812;42.632;23.440;2023-11-19T04:48:37;4.32;;;2.42;;
68178;SDS011;69812;42.632;23.440;2023-11-19T04:51:04;3.28;;;2.05;;
68178;SDS011;69812;42.632;23.440;2023-11-19T04:53:30;4.40;;;2.33;;
68178;SDS011;69812;42.632;23.440;2023-11-19T04:55:55;3.53;;;2.22;;
68178;SDS011;69812;42.632;23.440;2023-11-19T04:58:21;3.60;;;2.30;;
68178;SDS011;69812;42.632;23.440;2023-11-19T05:00:46;4.47;;;2.70;;
68178;SDS011;69812;42.632;23.440;2023-11-19T05:03:11;3.25;;;1.90;;
68178;SDS011;69812;42.632;23.440;2023-11-19T05:05:37;4.65;;;2.22;;
68178;SDS011;69812;42.632;23.440;2023-11-19T05:08:02;3.03;;;2.10;;
68178;SDS011;69812;42.632;23.440;2023-11-19T05:10:28;5.07;;;2.35;;
68178;SDS011;69812;42.632;23.440;2023-11-19T05:12:53;3.55;;;2.30;;
68178;SDS011;69812;42.632;23.440;2023-11-19T05:15:21;3.08;;;1.77;;
68178;SDS011;69812;42.632;23.440;2023-11-19T05:17:46;2.85;;;1.70;;
68178;SDS011;69812;42.632;23.440;2023-11-19T05:20:14;2.95;;;1.92;;
68178;SDS011;69812;42.632;23.440;2023-11-19T05:22:40;3.70;;;2.25;;
68178;SDS011;69812;42.632;23.440;2023-11-19T05:25:06;4.68;;;2.00;;
68178;SDS011;69812;42.632;23.440;2023-11-19T05:27:33;2.78;;;2.13;;
68178;SDS011;69812;42.632;23.440;2023-11-19T05:30:00;3.95;;;2.35;;
68178;SDS011;69812;42.632;23.440;2023-11-19T05:32:25;4.07;;;2.45;;
68178;SDS011;69812;42.632;23.440;2023-11-19T05:34:50;3.70;;;1.98;;
68178;SDS011;69812;42.632;23.440;2023-11-19T05:37:16;3.88;;;2.53;;
68178;SDS011;69812;42.632;23.440;2023-11-19T05:39:41;3.35;;;1.88;;
68178;SDS011;69812;42.632;23.440;2023-11-19T05:42:07;2.67;;;1.55;;
68178;SDS011;69812;42.632;23.440;2023-11-19T05:44:32;4.53;;;2.22;;
68178;SDS011;69812;42.632;23.440;2023-11-19T05:46:58;3.45;;;2.00;;
68178;SDS011;69812;42.632;23.440;2023-11-19T05:49:23;2.70;;;1.65;;
68178;SDS011;69812;42.632;23.440;2023-11-19T05:51:48;3.45;;;2.15;;
68178;SDS011;69812;42.632;23.440;2023-11-19T05:54:14;4.93;;;2.00;;
68178;SDS011;69812;42.632;23.440;2023-11-19T05:56:39;3.00;;;1.73;;
68178;SDS011;69812;42.632;23.440;2023-11-19T05:59:05;3.10;;;1.75;;
68178;SDS011;69812;42.632;23.440;2023-11-19T06:01:39;3.25;;;1.88;;
68178;SDS011;69812;42.632;23.440;2023-11-19T06:04:06;2.80;;;1.90;;
68178;SDS011;69812;42.632;23.440;2023-11-19T06:06:32;2.42;;;1.63;;
68178;SDS011;69812;42.632;23.440;2023-11-19T06:08:57;3.45;;;2.13;;
68178;SDS011;69812;42.632;23.440;2023-11-19T06:11:22;4.78;;;2.40;;
68178;SDS011;69812;42.632;23.440;2023-11-19T06:13:48;3.58;;;2.25;;
68178;SDS011;69812;42.632;23.440;2023-11-19T06:16:15;3.42;;;1.92;;
68178;SDS011;69812;42.632;23.440;2023-11-19T06:18:40;3.47;;;2.30;;
68178;SDS011;69812;42.632;23.440;2023-11-19T06:21:06;4.82;;;2.40;;
68178;SDS011;69812;42.632;23.440;2023-11-19T06:23:32;3.25;;;1.83;;
68178;SDS011;69812;42.632;23.440;2023-11-19T06:25:57;3.60;;;2.13;;
68178;SDS011;69812;42.632;23.440;2023-11-19T06:28:22;3.45;;;2.20;;
68178;SDS011;69812;42.632;23.440;2023-11-19T06:30:48;3.60;;;2.08;;
68178;SDS011;69812;42.632;23.440;2023-11-19T06:33:13;4.22;;;2.22;;
68178;SDS011;69812;42.632;23.440;2023-11-19T06:35:39;3.53;;;1.98;;
68178;SDS011;69812;42.632;23.440;2023-11-19T06:38:05;3.85;;;2.60;;
68178;SDS011;69812;42.632;23.440;2023-11-19T06:40:30;4.97;;;2.90;;
68178;SDS011;69812;42.632;23.440;2023-11-19T06:42:56;3.58;;;1.83;;
68178;SDS011;69812;42.632;23.440;2023-11-19T06:45:22;4.20;;;2.42;;
68178;SDS011;69812;42.632;23.440;2023-11-19T06:47:47;5.47;;;2.90;;
68178;SDS011;69812;42.632;23.440;2023-11-19T06:50:13;6.00;;;2.42;;
68178;SDS011;69812;42.632;23.440;2023-11-19T06:52:40;4.40;;;2.55;;
68178;SDS011;69812;42.632;23.440;2023-11-19T06:55:05;4.85;;;2.75;;
68178;SDS011;69812;42.632;23.440;2023-11-19T06:57:31;4.78;;;2.70;;
68178;SDS011;69812;42.632;23.440;2023-11-19T06:59:57;3.35;;;1.98;;
68178;SDS011;69812;42.632;23.440;2023-11-19T07:02:24;4.20;;;2.45;;
68178;SDS011;69812;42.632;23.440;2023-11-19T07:04:50;5.97;;;2.85;;
68178;SDS011;69812;42.632;23.440;2023-11-19T07:07:16;4.35;;;2.67;;
68178;SDS011;69812;42.632;23.440;2023-11-19T07:09:41;4.95;;;2.33;;
68178;SDS011;69812;42.632;23.440;2023-11-19T07:12:06;3.92;;;1.88;;
68178;SDS011;69812;42.632;23.440;2023-11-19T07:14:32;3.83;;;2.30;;
68178;SDS011;69812;42.632;23.440;2023-11-19T07:16:57;6.50;;;3.13;;
68178;SDS011;69812;42.632;23.440;2023-11-19T07:19:23;4.18;;;2.40;;
68178;SDS011;69812;42.632;23.440;2023-11-19T07:21:48;4.15;;;2.33;;
68178;SDS011;69812;42.632;23.440;2023-11-19T07:24:14;4.32;;;2.70;;
68178;SDS011;69812;42.632;23.440;2023-11-19T07:26:43;4.65;;;2.50;;
68178;SDS011;69812;42.632;23.440;2023-11-19T07:29:09;4.32;;;2.45;;
68178;SDS011;69812;42.632;23.440;2023-11-19T07:31:35;4.88;;;2.45;;
68178;SDS011;69812;42.632;23.440;2023-11-19T07:34:00;5.70;;;2.08;;
68178;SDS011;69812;42.632;23.440;2023-11-19T07:36:26;4.18;;;2.53;;
68178;SDS011;69812;42.632;23.440;2023-11-19T07:38:52;3.60;;;2.25;;
68178;SDS011;69812;42.632;23.440;2023-11-19T07:41:18;5.13;;;2.80;;
68178;SDS011;69812;42.632;23.440;2023-11-19T07:43:45;5.63;;;2.58;;
68178;SDS011;69812;42.632;23.440;2023-11-19T07:46:11;10.77;;;2.75;;
68178;SDS011;69812;42.632;23.440;2023-11-19T07:48:38;4.50;;;1.98;;
68178;SDS011;69812;42.632;23.440;2023-11-19T07:51:04;3.45;;;2.40;;
68178;SDS011;69812;42.632;23.440;2023-11-19T07:53:30;4.00;;;2.03;;
68178;SDS011;69812;42.632;23.440;2023-11-19T07:55:55;5.57;;;2.40;;
68178;SDS011;69812;42.632;23.440;2023-11-19T07:58:20;4.93;;;2.67;;
68178;SDS011;69812;42.632;23.440;2023-11-19T08:00:46;5.57;;;2.58;;
68178;SDS011;69812;42.632;23.440;2023-11-19T08:03:11;4.38;;;2.20;;
68178;SDS011;69812;42.632;23.440;2023-11-19T08:05:37;6.05;;;2.35;;
68178;SDS011;69812;42.632;23.440;2023-11-19T08:08:02;4.50;;;2.10;;
68178;SDS011;69812;42.632;23.440;2023-11-19T08:10:27;5.40;;;2.78;;
68178;SDS011;69812;42.632;23.440;2023-11-19T08:12:53;5.88;;;2.88;;
68178;SDS011;69812;42.632;23.440;2023-11-19T08:15:19;7.35;;;3.83;;
68178;SDS011;69812;42.632;23.440;2023-11-19T08:17:44;3.95;;;2.20;;
68178;SDS011;69812;42.632;23.440;2023-11-19T08:20:10;4.07;;;2.30;;
68178;SDS011;69812;42.632;23.440;2023-11-19T08:22:36;4.68;;;2.38;;
68178;SDS011;69812;42.632;23.440;2023-11-19T08:25:03;3.30;;;2.28;;
68178;SDS011;69812;42.632;23.440;2023-11-19T08:27:32;3.92;;;2.28;;
68178;SDS011;69812;42.632;23.440;2023-11-19T08:29:58;3.28;;;2.20;;
68178;SDS011;69812;42.632;23.440;2023-11-19T08:32:26;3.83;;;2.38;;
68178;SDS011;69812;42.632;23.440;2023-11-19T08:34:52;4.25;;;2.20;;
68178;SDS011;69812;42.632;23.440;2023-11-19T08:37:18;4.32;;;2.50;;
68178;SDS011;69812;42.632;23.440;2023-11-19T08:39:46;5.95;;;3.08;;
68178;SDS011;69812;42.632;23.440;2023-11-19T08:42:12;4.35;;;2.67;;
68178;SDS011;69812;42.632;23.440;2023-11-19T08:44:37;4.63;;;2.75;;
68178;SDS011;69812;42.632;23.440;2023-11-19T08:47:03;4.60;;;2.75;;
68178;SDS011;69812;42.632;23.440;2023-11-19T08:49:31;4.55;;;2.25;;
68178;SDS011;69812;42.632;23.440;2023-11-19T08:51:57;4.20;;;2.63;;
68178;SDS011;69812;42.632;23.440;2023-11-19T08:54:22;3.97;;;2.72;;
68178;SDS011;69812;42.632;23.440;2023-11-19T08:56:48;3.00;;;1.83;;
68178;SDS011;69812;42.632;23.440;2023-11-19T08:59:13;4.97;;;2.78;;
68178;SDS011;69812;42.632;23.440;2023-11-19T09:01:40;5.38;;;2.90;;
68178;SDS011;69812;42.632;23.440;2023-11-19T09:04:06;3.90;;;2.33;;
68178;SDS011;69812;42.632;23.440;2023-11-19T09:06:31;5.13;;;2.90;;
68178;SDS011;69812;42.632;23.440;2023-11-19T09:08:57;4.22;;;2.58;;
68178;SDS011;69812;42.632;23.440;2023-11-19T09:11:26;5.72;;;2.28;;
68178;SDS011;69812;42.632;23.440;2023-11-19T09:13:51;4.22;;;2.55;;
68178;SDS011;69812;42.632;23.440;2023-11-19T09:16:17;4.18;;;2.55;;
68178;SDS011;69812;42.632;23.440;2023-11-19T09:18:43;3.08;;;2.28;;
68178;SDS011;69812;42.632;23.440;2023-11-19T09:21:10;4.07;;;2.08;;
68178;SDS011;69812;42.632;23.440;2023-11-19T09:26:04;3.08;;;1.90;;
68178;SDS011;69812;42.632;23.440;2023-11-19T09:28:30;4.35;;;2.70;;
68178;SDS011;69812;42.632;23.440;2023-11-19T09:30:56;4.25;;;3.03;;
68178;SDS011;69812;42.632;23.440;2023-11-19T09:33:23;4.30;;;2.45;;
68178;SDS011;69812;42.632;23.440;2023-11-19T09:35:48;4.95;;;2.28;;
68178;SDS011;69812;42.632;23.440;2023-11-19T09:38:17;4.97;;;2.70;;
68178;SDS011;69812;42.632;23.440;2023-11-19T09:40:42;4.50;;;2.20;;
68178;SDS011;69812;42.632;23.440;2023-11-19T09:43:08;4.68;;;2.97;;
68178;SDS011;69812;42.632;23.440;2023-11-19T09:45:52;4.10;;;2.75;;
68178;SDS011;69812;42.632;23.440;2023-11-19T09:48:18;5.10;;;3.03;;
68178;SDS011;69812;42.632;23.440;2023-11-19T09:50:45;3.28;;;2.13;;
68178;SDS011;69812;42.632;23.440;2023-11-19T09:53:12;3.55;;;2.17;;
68178;SDS011;69812;42.632;23.440;2023-11-19T09:55:37;3.75;;;2.00;;
68178;SDS011;69812;42.632;23.440;2023-11-19T09:58:03;4.40;;;2.28;;
68178;SDS011;69812;42.632;23.440;2023-11-19T10:00:29;4.07;;;2.33;;
68178;SDS011;69812;42.632;23.440;2023-11-19T10:02:55;4.18;;;2.25;;
68178;SDS011;69812;42.632;23.440;2023-11-19T10:05:24;3.78;;;2.65;;
68178;SDS011;69812;42.632;23.440;2023-11-19T10:07:51;4.85;;;2.90;;
68178;SDS011;69812;42.632;23.440;2023-11-19T10:10:17;4.60;;;2.55;;
68178;SDS011;69812;42.632;23.440;2023-11-19T10:12:45;3.58;;;2.28;;
68178;SDS011;69812;42.632;23.440;2023-11-19T10:15:19;3.17;;;2.25;;
68178;SDS011;69812;42.632;23.440;2023-11-19T10:17:50;4.22;;;2.35;;
68178;SDS011;69812;42.632;23.440;2023-11-19T10:20:16;3.50;;;2.20;;
68178;SDS011;69812;42.632;23.440;2023-11-19T10:22:41;3.30;;;2.03;;
68178;SDS011;69812;42.632;23.440;2023-11-19T10:25:25;5.07;;;2.10;;
68178;SDS011;69812;42.632;23.440;2023-11-19T10:27:52;3.58;;;2.22;;
68178;SDS011;69812;42.632;23.440;2023-11-19T10:30:27;4.65;;;2.25;;
68178;SDS011;69812;42.632;23.440;2023-11-19T10:33:03;3.90;;;1.75;;
68178;SDS011;69812;42.632;23.440;2023-11-19T10:35:33;5.00;;;2.65;;
68178;SDS011;69812;42.632;23.440;2023-11-19T10:40:39;3.85;;;1.77;;
68178;SDS011;69812;42.632;23.440;2023-11-19T10:43:05;5.13;;;2.20;;
68178;SDS011;69812;42.632;23.440;2023-11-19T10:47:59;3.03;;;1.77;;
68178;SDS011;69812;42.632;23.440;2023-11-19T10:50:27;3.92;;;1.95;;
68178;SDS011;69812;42.632;23.440;2023-11-19T10:52:55;4.45;;;2.70;;
68178;SDS011;69812;42.632;23.440;2023-11-19T10:55:28;3.58;;;2.30;;
68178;SDS011;69812;42.632;23.440;2023-11-19T10:58:00;4.38;;;2.00;;
68178;SDS011;69812;42.632;23.440;2023-11-19T11:01:16;3.70;;;2.60;;
68178;SDS011;69812;42.632;23.440;2023-11-19T11:03:19;3.35;;;2.00;;
68178;SDS011;69812;42.632;23.440;2023-11-19T11:05:48;5.32;;;2.35;;
68178;SDS011;69812;42.632;23.440;2023-11-19T11:08:14;3.40;;;2.15;;
68178;SDS011;69812;42.632;23.440;2023-11-19T11:10:54;5.10;;;2.58;;
68178;SDS011;69812;42.632;23.440;2023-11-19T11:13:22;4.30;;;2.10;;
68178;SDS011;69812;42.632;23.440;2023-11-19T11:15:51;3.92;;;2.28;;
68178;SDS011;69812;42.632;23.440;2023-11-19T11:18:22;3.22;;;2.00;;
68178;SDS011;69812;42.632;23.440;2023-11-19T11:20:49;3.97;;;2.35;;
68178;SDS011;69812;42.632;23.440;2023-11-19T11:39:39;4.93;;;1.85;;
68178;SDS011;69812;42.632;23.440;2023-11-19T11:42:51;3.40;;;2.15;;
68178;SDS011;69812;42.632;23.440;2023-11-19T11:45:01;3.92;;;2.08;;
68178;SDS011;69812;42.632;23.440;2023-11-19T11:50:11;2.80;;;1.67;;
68178;SDS011;69812;42.632;23.440;2023-11-19T11:55:36;2.95;;;1.85;;
68178;SDS011;69812;42.632;23.440;2023-11-19T11:58:26;3.00;;;1.50;;
68178;SDS011;69812;42.632;23.440;2023-11-19T12:00:59;2.95;;;1.77;;
68178;SDS011;69812;42.632;23.440;2023-11-19T12:03:27;3.13;;;2.03;;
68178;SDS011;69812;42.632;23.440;2023-11-19T12:05:54;4.75;;;2.35;;
68178;SDS011;69812;42.632;23.440;2023-11-19T12:08:20;4.72;;;2.33;;
68178;SDS011;69812;42.632;23.440;2023-11-19T12:10:53;3.47;;;2.10;;
68178;SDS011;69812;42.632;23.440;2023-11-19T12:13:23;4.30;;;2.20;;
68178;SDS011;69812;42.632;23.440;2023-11-19T12:18:26;4.40;;;2.22;;
68178;SDS011;69812;42.632;23.440;2023-11-19T12:20:53;6.43;;;2.58;;
68178;SDS011;69812;42.632;23.440;2023-11-19T12:23:19;7.22;;;3.08;;
68178;SDS011;69812;42.632;23.440;2023-11-19T12:25:47;4.35;;;2.30;;
68178;SDS011;69812;42.632;23.440;2023-11-19T12:28:13;3.67;;;1.90;;
68178;SDS011;69812;42.632;23.440;2023-11-19T12:30:39;4.10;;;2.60;;
68178;SDS011;69812;42.632;23.440;2023-11-19T12:33:08;4.18;;;2.50;;
68178;SDS011;69812;42.632;23.440;2023-11-19T12:35:40;5.55;;;2.97;;
68178;SDS011;69812;42.632;23.440;2023-11-19T12:38:06;4.68;;;2.40;;
68178;SDS011;69812;42.632;23.440;2023-11-19T12:40:32;3.85;;;2.38;;
68178;SDS011;69812;42.632;23.440;2023-11-19T12:42:57;4.18;;;2.60;;
68178;SDS011;69812;42.632;23.440;2023-11-19T12:45:24;4.50;;;2.33;;
68178;SDS011;69812;42.632;23.440;2023-11-19T12:47:49;3.75;;;2.20;;
68178;SDS011;69812;42.632;23.440;2023-11-19T12:50:17;5.00;;;2.42;;
68178;SDS011;69812;42.632;23.440;2023-11-19T12:52:54;5.53;;;2.65;;
68178;SDS011;69812;42.632;23.440;2023-11-19T12:55:28;4.95;;;2.72;;
68178;SDS011;69812;42.632;23.440;2023-11-19T12:57:54;5.22;;;2.70;;
68178;SDS011;69812;42.632;23.440;2023-11-19T13:00:21;5.47;;;2.70;;
68178;SDS011;69812;42.632;23.440;2023-11-19T13:13:20;3.95;;;1.95;;
68178;SDS011;69812;42.632;23.440;2023-11-19T13:15:46;6.35;;;2.85;;
68178;SDS011;69812;42.632;23.440;2023-11-19T13:18:12;4.85;;;2.83;;
68178;SDS011;69812;42.632;23.440;2023-11-19T13:20:38;5.07;;;2.55;;
68178;SDS011;69812;42.632;23.440;2023-11-19T13:23:04;5.47;;;3.15;;
68178;SDS011;69812;42.632;23.440;2023-11-19T13:25:32;6.60;;;2.63;;
68178;SDS011;69812;42.632;23.440;2023-11-19T13:27:57;6.25;;;2.92;;
68178;SDS011;69812;42.632;23.440;2023-11-19T13:30:24;6.00;;;2.65;;
68178;SDS011;69812;42.632;23.440;2023-11-19T13:32:51;5.57;;;2.83;;
68178;SDS011;69812;42.632;23.440;2023-11-19T13:35:17;4.03;;;2.40;;
68178;SDS011;69812;42.632;23.440;2023-11-19T13:37:43;6.30;;;2.45;;
68178;SDS011;69812;42.632;23.440;2023-11-19T13:40:10;4.38;;;2.60;;
68178;SDS011;69812;42.632;23.440;2023-11-19T13:42:40;5.80;;;2.65;;
68178;SDS011;69812;42.632;23.440;2023-11-19T13:45:12;4.78;;;2.45;;
68178;SDS011;69812;42.632;23.440;2023-11-19T13:47:39;5.15;;;2.65;;
68178;SDS011;69812;42.632;23.440;2023-11-19T13:50:06;6.50;;;2.40;;
68178;SDS011;69812;42.632;23.440;2023-11-19T13:52:39;3.10;;;1.83;;
68178;SDS011;69812;42.632;23.440;2023-11-19T13:55:09;5.32;;;2.40;;
68178;SDS011;69812;42.632;23.440;2023-11-19T13:57:35;4.82;;;2.60;;
68178;SDS011;69812;42.632;23.440;2023-11-19T14:00:02;6.22;;;3.13;;
68178;SDS011;69812;42.632;23.440;2023-11-19T14:02:34;6.30;;;3.47;;
68178;SDS011;69812;42.632;23.440;2023-11-19T14:04:59;8.80;;;3.60;;
68178;SDS011;69812;42.632;23.440;2023-11-19T14:07:25;5.40;;;2.70;;
68178;SDS011;69812;42.632;23.440;2023-11-19T14:09:50;6.57;;;3.78;;
68178;SDS011;69812;42.632;23.440;2023-11-19T14:12:16;6.22;;;2.92;;
68178;SDS011;69812;42.632;23.440;2023-11-19T14:14:42;7.78;;;3.22;;
68178;SDS011;69812;42.632;23.440;2023-11-19T14:17:07;5.60;;;3.13;;
68178;SDS011;69812;42.632;23.440;2023-11-19T14:19:33;6.10;;;2.90;;
68178;SDS011;69812;42.632;23.440;2023-11-19T14:21:58;6.45;;;2.78;;
68178;SDS011;69812;42.632;23.440;2023-11-19T14:24:25;5.85;;;3.03;;
68178;SDS011;69812;42.632;23.440;2023-11-19T14:26:51;7.05;;;3.38;;
68178;SDS011;69812;42.632;23.440;2023-11-19T14:29:16;7.47;;;3.78;;
68178;SDS011;69812;42.632;23.440;2023-11-19T14:31:42;7.15;;;3.90;;
68178;SDS011;69812;42.632;23.440;2023-11-19T14:34:08;7.07;;;3.90;;
68178;SDS011;69812;42.632;23.440;2023-11-19T14:36:33;9.25;;;4.13;;
68178;SDS011;69812;42.632;23.440;2023-11-19T14:38:59;8.35;;;4.00;;
68178;SDS011;69812;42.632;23.440;2023-11-19T14:41:24;7.20;;;3.97;;
68178;SDS011;69812;42.632;23.440;2023-11-19T14:43:50;7.25;;;3.17;;
68178;SDS011;69812;42.632;23.440;2023-11-19T14:46:15;7.63;;;3.72;;
68178;SDS011;69812;42.632;23.440;2023-11-19T14:48:41;8.48;;;3.80;;
68178;SDS011;69812;42.632;23.440;2023-11-19T14:51:06;5.78;;;3.45;;
68178;SDS011;69812;42.632;23.440;2023-11-19T14:53:32;9.85;;;3.72;;
68178;SDS011;69812;42.632;23.440;2023-11-19T14:55:58;12.50;;;4.07;;
68178;SDS011;69812;42.632;23.440;2023-11-19T14:58:23;9.80;;;4.45;;
68178;SDS011;69812;42.632;23.440;2023-11-19T15:03:16;8.65;;;4.35;;
68178;SDS011;69812;42.632;23.440;2023-11-19T15:05:44;9.55;;;4.00;;
68178;SDS011;69812;42.632;23.440;2023-11-19T15:08:11;21.67;;;7.78;;
68178;SDS011;69812;42.632;23.440;2023-11-19T15:10:36;27.92;;;10.52;;
68178;SDS011;69812;42.632;23.440;2023-11-19T15:13:03;11.25;;;5.03;;
68178;SDS011;69812;42.632;23.440;2023-11-19T15:15:29;12.48;;;5.60;;
68178;SDS011;69812;42.632;23.440;2023-11-19T15:17:54;15.13;;;6.53;;